KCGZ/CGZ METAR and TAF weather

Enter ICAO airport designator
Station Type Date Time Source
KCGZ METAR 2021/07/29 02:56 UTC NOAA

KCGZ 290256Z AUTO 00000KT 10SM CLR 36/18 A2988 RMK AO2 SLP102 6//// T03560178 53000


Station Type Date Time Source
KCGZ Decoded METAR 2021/07/29 02:56 UTC NOAA

Casa Grande, Casa Grande Municipal Airport, AZ, United States (KCGZ) 32-57N 111-46W
Jul 28, 2021 - 10:56 PM EDT / 2021.07.29 0256 UTC
Wind: Calm:0
Visibility: 10 mile(s):0
Sky conditions: clear
Temperature: 96.1 F (35.6 C)
Heat index: 98.4 F (36.9 C):1
Dew Point: 64.0 F (17.8 C)
Relative Humidity: 35%
Pressure (altimeter): 29.88 in. Hg (1011 hPa)
Pressure tendency: 0.00 inches (0.0 hPa) higher than three hours ago
ob: KCGZ 290256Z AUTO 00000KT 10SM CLR 36/18 A2988 RMK AO2 SLP102 6//// T03560178 53000
cycle: 3

Station Type Date Time Source
KCGZ TAF UTC NOAA

Error!

Example: see airport list